sensor_id;sensor_type;location;lat;lon;timestamp;P1;durP1;ratioP1;P2;durP2;ratioP2
74644;SDS011;63163;55.630;37.594;2023-04-30T00:00:18;12.5;;;5.2;;
74644;SDS011;63163;55.630;37.594;2023-04-30T00:01:18;9.4;;;4.4;;
74644;SDS011;63163;55.630;37.594;2023-04-30T00:02:19;9.5;;;4.8;;
74644;SDS011;63163;55.630;37.594;2023-04-30T00:03:19;8.5;;;4.7;;
74644;SDS011;63163;55.630;37.594;2023-04-30T00:04:20;11.7;;;5.2;;
74644;SDS011;63163;55.630;37.594;2023-04-30T00:05:20;10.3;;;4.8;;
74644;SDS011;63163;55.630;37.594;2023-04-30T00:06:21;10.4;;;5.1;;
74644;SDS011;63163;55.630;37.594;2023-04-30T00:07:22;11.1;;;5.1;;
74644;SDS011;63163;55.630;37.594;2023-04-30T00:08:22;12.8;;;5.7;;
74644;SDS011;63163;55.630;37.594;2023-04-30T00:09:23;12.0;;;6.0;;
74644;SDS011;63163;55.630;37.594;2023-04-30T00:10:23;11.8;;;6.0;;
74644;SDS011;63163;55.630;37.594;2023-04-30T00:11:24;13.4;;;6.7;;
74644;SDS011;63163;55.630;37.594;2023-04-30T00:12:26;12.7;;;6.6;;
74644;SDS011;63163;55.630;37.594;2023-04-30T00:13:26;14.1;;;6.6;;
74644;SDS011;63163;55.630;37.594;2023-04-30T00:14:27;13.7;;;7.1;;
74644;SDS011;63163;55.630;37.594;2023-04-30T00:15:27;12.1;;;6.5;;
74644;SDS011;63163;55.630;37.594;2023-04-30T00:16:28;11.5;;;6.8;;
74644;SDS011;63163;55.630;37.594;2023-04-30T00:17:28;12.9;;;7.0;;
74644;SDS011;63163;55.630;37.594;2023-04-30T00:18:29;11.7;;;6.0;;
74644;SDS011;63163;55.630;37.594;2023-04-30T00:19:29;11.3;;;5.6;;
74644;SDS011;63163;55.630;37.594;2023-04-30T00:20:30;13.3;;;6.3;;
74644;SDS011;63163;55.630;37.594;2023-04-30T00:21:31;12.6;;;6.5;;
74644;SDS011;63163;55.630;37.594;2023-04-30T00:22:32;10.5;;;6.1;;
74644;SDS011;63163;55.630;37.594;2023-04-30T00:23:33;12.7;;;5.6;;
74644;SDS011;63163;55.630;37.594;2023-04-30T00:24:33;13.4;;;5.5;;
74644;SDS011;63163;55.630;37.594;2023-04-30T00:25:34;10.8;;;5.8;;
74644;SDS011;63163;55.630;37.594;2023-04-30T00:26:34;10.4;;;5.4;;
74644;SDS011;63163;55.630;37.594;2023-04-30T00:27:35;12.4;;;6.4;;
74644;SDS011;63163;55.630;37.594;2023-04-30T00:28:35;9.7;;;5.7;;
74644;SDS011;63163;55.630;37.594;2023-04-30T00:29:36;10.7;;;6.1;;
74644;SDS011;63163;55.630;37.594;2023-04-30T00:30:37;12.9;;;6.2;;
74644;SDS011;63163;55.630;37.594;2023-04-30T00:31:37;11.0;;;6.3;;
74644;SDS011;63163;55.630;37.594;2023-04-30T00:32:38;11.7;;;6.4;;
74644;SDS011;63163;55.630;37.594;2023-04-30T00:33:38;11.4;;;6.2;;
74644;SDS011;63163;55.630;37.594;2023-04-30T00:34:39;12.4;;;6.1;;
74644;SDS011;63163;55.630;37.594;2023-04-30T00:35:40;12.3;;;6.1;;
74644;SDS011;63163;55.630;37.594;2023-04-30T00:36:41;10.6;;;6.0;;
74644;SDS011;63163;55.630;37.594;2023-04-30T00:37:41;12.7;;;6.2;;
74644;SDS011;63163;55.630;37.594;2023-04-30T00:38:41;14.6;;;6.8;;
74644;SDS011;63163;55.630;37.594;2023-04-30T00:39:42;11.6;;;6.7;;
74644;SDS011;63163;55.630;37.594;2023-04-30T00:40:43;13.3;;;6.8;;
74644;SDS011;63163;55.630;37.594;2023-04-30T00:41:43;12.8;;;6.3;;
74644;SDS011;63163;55.630;37.594;2023-04-30T00:42:44;11.6;;;5.8;;
74644;SDS011;63163;55.630;37.594;2023-04-30T00:43:44;10.8;;;6.2;;
74644;SDS011;63163;55.630;37.594;2023-04-30T00:44:46;11.3;;;5.9;;
74644;SDS011;63163;55.630;37.594;2023-04-30T00:45:46;11.7;;;6.2;;
74644;SDS011;63163;55.630;37.594;2023-04-30T00:46:47;8.7;;;5.4;;
74644;SDS011;63163;55.630;37.594;2023-04-30T00:47:47;11.5;;;5.8;;
74644;SDS011;63163;55.630;37.594;2023-04-30T00:48:48;10.6;;;5.0;;
74644;SDS011;63163;55.630;37.594;2023-04-30T00:49:49;9.3;;;4.8;;
74644;SDS011;63163;55.630;37.594;2023-04-30T00:50:49;8.7;;;4.5;;
74644;SDS011;63163;55.630;37.594;2023-04-30T00:51:50;10.6;;;4.8;;
74644;SDS011;63163;55.630;37.594;2023-04-30T00:52:51;10.7;;;5.2;;
74644;SDS011;63163;55.630;37.594;2023-04-30T00:53:51;11.4;;;6.1;;
74644;SDS011;63163;55.630;37.594;2023-04-30T00:54:52;10.5;;;5.2;;
74644;SDS011;63163;55.630;37.594;2023-04-30T00:55:53;9.6;;;5.4;;
74644;SDS011;63163;55.630;37.594;2023-04-30T00:56:55;11.7;;;6.0;;
74644;SDS011;63163;55.630;37.594;2023-04-30T00:57:55;9.6;;;4.8;;
74644;SDS011;63163;55.630;37.594;2023-04-30T00:58:56;11.4;;;5.8;;
74644;SDS011;63163;55.630;37.594;2023-04-30T00:59:57;11.9;;;6.9;;
74644;SDS011;63163;55.630;37.594;2023-04-30T01:00:58;12.7;;;5.7;;
74644;SDS011;63163;55.630;37.594;2023-04-30T01:01:58;10.3;;;5.1;;
74644;SDS011;63163;55.630;37.594;2023-04-30T01:02:59;12.4;;;5.2;;
74644;SDS011;63163;55.630;37.594;2023-04-30T01:04:00;8.7;;;4.7;;
74644;SDS011;63163;55.630;37.594;2023-04-30T01:05:01;9.0;;;4.5;;
74644;SDS011;63163;55.630;37.594;2023-04-30T01:06:01;9.0;;;4.9;;
74644;SDS011;63163;55.630;37.594;2023-04-30T01:07:02;9.0;;;4.9;;
74644;SDS011;63163;55.630;37.594;2023-04-30T01:08:03;9.1;;;4.6;;
74644;SDS011;63163;55.630;37.594;2023-04-30T01:09:03;10.9;;;5.2;;
74644;SDS011;63163;55.630;37.594;2023-04-30T01:10:05;9.7;;;5.3;;
74644;SDS011;63163;55.630;37.594;2023-04-30T01:11:08;10.5;;;4.9;;
74644;SDS011;63163;55.630;37.594;2023-04-30T01:12:12;9.0;;;5.1;;
74644;SDS011;63163;55.630;37.594;2023-04-30T01:13:19;10.5;;;4.8;;
74644;SDS011;63163;55.630;37.594;2023-04-30T01:14:23;11.8;;;5.1;;
74644;SDS011;63163;55.630;37.594;2023-04-30T01:15:26;8.5;;;4.6;;
74644;SDS011;63163;55.630;37.594;2023-04-30T01:16:29;11.7;;;5.3;;
74644;SDS011;63163;55.630;37.594;2023-04-30T01:17:33;9.4;;;4.8;;
74644;SDS011;63163;55.630;37.594;2023-04-30T01:18:37;9.2;;;5.1;;
74644;SDS011;63163;55.630;37.594;2023-04-30T01:19:40;10.3;;;5.2;;
74644;SDS011;63163;55.630;37.594;2023-04-30T01:20:43;10.6;;;5.6;;
74644;SDS011;63163;55.630;37.594;2023-04-30T01:21:47;13.3;;;5.7;;
74644;SDS011;63163;55.630;37.594;2023-04-30T01:22:50;12.1;;;6.2;;
74644;SDS011;63163;55.630;37.594;2023-04-30T01:23:54;13.6;;;6.7;;
74644;SDS011;63163;55.630;37.594;2023-04-30T01:25:09;13.4;;;6.4;;
74644;SDS011;63163;55.630;37.594;2023-04-30T01:26:12;13.7;;;5.8;;
74644;SDS011;63163;55.630;37.594;2023-04-30T01:27:14;12.1;;;6.1;;
74644;SDS011;63163;55.630;37.594;2023-04-30T01:28:22;15.4;;;6.4;;
74644;SDS011;63163;55.630;37.594;2023-04-30T01:29:24;12.2;;;6.3;;
74644;SDS011;63163;55.630;37.594;2023-04-30T01:30:26;14.6;;;7.2;;
74644;SDS011;63163;55.630;37.594;2023-04-30T01:31:26;13.9;;;7.3;;
74644;SDS011;63163;55.630;37.594;2023-04-30T01:32:27;15.4;;;7.7;;
74644;SDS011;63163;55.630;37.594;2023-04-30T01:33:28;17.3;;;7.9;;
74644;SDS011;63163;55.630;37.594;2023-04-30T01:34:28;13.9;;;7.5;;
74644;SDS011;63163;55.630;37.594;2023-04-30T01:35:34;14.1;;;7.8;;
74644;SDS011;63163;55.630;37.594;2023-04-30T01:36:41;14.1;;;8.0;;
74644;SDS011;63163;55.630;37.594;2023-04-30T01:37:46;15.1;;;8.2;;
74644;SDS011;63163;55.630;37.594;2023-04-30T01:38:56;13.1;;;7.0;;
74644;SDS011;63163;55.630;37.594;2023-04-30T01:40:04;14.8;;;7.0;;
74644;SDS011;63163;55.630;37.594;2023-04-30T01:41:08;14.5;;;7.3;;
74644;SDS011;63163;55.630;37.594;2023-04-30T01:42:11;12.7;;;6.4;;
74644;SDS011;63163;55.630;37.594;2023-04-30T01:43:16;12.8;;;5.8;;
74644;SDS011;63163;55.630;37.594;2023-04-30T01:44:23;13.2;;;6.8;;
74644;SDS011;63163;55.630;37.594;2023-04-30T01:45:31;10.7;;;5.7;;
74644;SDS011;63163;55.630;37.594;2023-04-30T01:46:32;10.9;;;5.8;;
74644;SDS011;63163;55.630;37.594;2023-04-30T01:47:35;15.0;;;6.0;;
74644;SDS011;63163;55.630;37.594;2023-04-30T01:48:39;9.8;;;5.7;;
74644;SDS011;63163;55.630;37.594;2023-04-30T01:49:43;11.1;;;5.6;;
74644;SDS011;63163;55.630;37.594;2023-04-30T01:50:47;12.2;;;5.5;;
74644;SDS011;63163;55.630;37.594;2023-04-30T01:51:48;12.0;;;5.8;;
74644;SDS011;63163;55.630;37.594;2023-04-30T01:52:56;11.3;;;5.8;;
74644;SDS011;63163;55.630;37.594;2023-04-30T01:54:00;11.4;;;6.4;;
74644;SDS011;63163;55.630;37.594;2023-04-30T01:55:04;15.3;;;6.3;;
74644;SDS011;63163;55.630;37.594;2023-04-30T01:56:08;10.2;;;5.7;;
74644;SDS011;63163;55.630;37.594;2023-04-30T01:57:11;14.3;;;6.3;;
74644;SDS011;63163;55.630;37.594;2023-04-30T01:58:13;13.4;;;6.0;;
74644;SDS011;63163;55.630;37.594;2023-04-30T01:59:14;11.9;;;6.4;;
74644;SDS011;63163;55.630;37.594;2023-04-30T02:00:15;11.9;;;6.5;;
74644;SDS011;63163;55.630;37.594;2023-04-30T02:01:25;15.0;;;7.0;;
74644;SDS011;63163;55.630;37.594;2023-04-30T02:02:26;15.6;;;7.8;;
74644;SDS011;63163;55.630;37.594;2023-04-30T02:03:26;13.4;;;7.3;;
74644;SDS011;63163;55.630;37.594;2023-04-30T02:04:27;12.4;;;7.0;;
74644;SDS011;63163;55.630;37.594;2023-04-30T02:05:28;12.2;;;7.4;;
74644;SDS011;63163;55.630;37.594;2023-04-30T02:06:28;13.2;;;6.7;;
74644;SDS011;63163;55.630;37.594;2023-04-30T02:07:41;12.9;;;7.3;;
74644;SDS011;63163;55.630;37.594;2023-04-30T02:08:43;13.8;;;7.1;;
74644;SDS011;63163;55.630;37.594;2023-04-30T02:09:43;16.1;;;7.3;;
74644;SDS011;63163;55.630;37.594;2023-04-30T02:10:44;11.1;;;6.4;;
74644;SDS011;63163;55.630;37.594;2023-04-30T02:11:44;14.3;;;7.3;;
74644;SDS011;63163;55.630;37.594;2023-04-30T02:12:45;12.1;;;7.1;;
74644;SDS011;63163;55.630;37.594;2023-04-30T02:13:45;12.3;;;6.9;;
74644;SDS011;63163;55.630;37.594;2023-04-30T02:14:46;13.2;;;7.3;;
74644;SDS011;63163;55.630;37.594;2023-04-30T02:15:46;14.0;;;6.9;;
74644;SDS011;63163;55.630;37.594;2023-04-30T02:16:47;13.8;;;7.4;;
74644;SDS011;63163;55.630;37.594;2023-04-30T02:17:47;11.0;;;7.0;;
74644;SDS011;63163;55.630;37.594;2023-04-30T02:18:48;11.8;;;7.1;;
74644;SDS011;63163;55.630;37.594;2023-04-30T02:19:48;13.6;;;7.4;;
74644;SDS011;63163;55.630;37.594;2023-04-30T02:20:49;15.3;;;7.1;;
74644;SDS011;63163;55.630;37.594;2023-04-30T02:21:49;11.7;;;6.6;;
74644;SDS011;63163;55.630;37.594;2023-04-30T02:22:50;15.6;;;7.1;;
74644;SDS011;63163;55.630;37.594;2023-04-30T02:23:51;13.8;;;6.9;;
74644;SDS011;63163;55.630;37.594;2023-04-30T02:24:51;11.1;;;6.4;;
74644;SDS011;63163;55.630;37.594;2023-04-30T02:25:54;12.7;;;6.6;;
74644;SDS011;63163;55.630;37.594;2023-04-30T02:26:55;13.3;;;6.9;;
74644;SDS011;63163;55.630;37.594;2023-04-30T02:27:55;13.7;;;7.0;;
74644;SDS011;63163;55.630;37.594;2023-04-30T02:28:56;13.4;;;7.0;;
74644;SDS011;63163;55.630;37.594;2023-04-30T02:29:57;13.3;;;6.8;;
74644;SDS011;63163;55.630;37.594;2023-04-30T02:30:57;11.8;;;6.5;;
74644;SDS011;63163;55.630;37.594;2023-04-30T02:31:58;11.1;;;6.7;;
74644;SDS011;63163;55.630;37.594;2023-04-30T02:32:58;11.8;;;6.3;;
74644;SDS011;63163;55.630;37.594;2023-04-30T02:33:59;14.9;;;7.1;;
74644;SDS011;63163;55.630;37.594;2023-04-30T02:35:00;16.3;;;7.0;;
74644;SDS011;63163;55.630;37.594;2023-04-30T02:36:00;13.0;;;6.6;;
74644;SDS011;63163;55.630;37.594;2023-04-30T02:37:01;13.2;;;6.9;;
74644;SDS011;63163;55.630;37.594;2023-04-30T02:38:02;14.4;;;6.9;;
74644;SDS011;63163;55.630;37.594;2023-04-30T02:39:02;13.6;;;7.3;;
74644;SDS011;63163;55.630;37.594;2023-04-30T02:40:03;12.4;;;6.6;;
74644;SDS011;63163;55.630;37.594;2023-04-30T02:41:04;14.0;;;6.9;;
74644;SDS011;63163;55.630;37.594;2023-04-30T02:42:05;12.9;;;7.0;;
74644;SDS011;63163;55.630;37.594;2023-04-30T02:43:06;15.3;;;7.7;;
74644;SDS011;63163;55.630;37.594;2023-04-30T02:44:06;16.4;;;7.2;;
74644;SDS011;63163;55.630;37.594;2023-04-30T02:45:07;14.5;;;7.6;;
74644;SDS011;63163;55.630;37.594;2023-04-30T02:46:07;15.1;;;7.5;;
74644;SDS011;63163;55.630;37.594;2023-04-30T02:47:08;11.7;;;7.3;;
74644;SDS011;63163;55.630;37.594;2023-04-30T02:48:09;11.6;;;7.1;;
74644;SDS011;63163;55.630;37.594;2023-04-30T02:49:09;12.8;;;6.8;;
74644;SDS011;63163;55.630;37.594;2023-04-30T02:50:10;12.0;;;7.2;;
74644;SDS011;63163;55.630;37.594;2023-04-30T02:51:10;12.3;;;7.5;;
74644;SDS011;63163;55.630;37.594;2023-04-30T02:52:11;15.1;;;7.4;;
74644;SDS011;63163;55.630;37.594;2023-04-30T02:53:11;14.8;;;7.2;;
74644;SDS011;63163;55.630;37.594;2023-04-30T02:54:12;16.6;;;7.7;;
74644;SDS011;63163;55.630;37.594;2023-04-30T02:55:12;12.0;;;6.6;;
74644;SDS011;63163;55.630;37.594;2023-04-30T02:56:13;14.5;;;8.0;;
74644;SDS011;63163;55.630;37.594;2023-04-30T02:57:13;13.3;;;6.9;;
74644;SDS011;63163;55.630;37.594;2023-04-30T02:58:14;13.7;;;7.9;;
74644;SDS011;63163;55.630;37.594;2023-04-30T02:59:14;15.3;;;7.7;;
74644;SDS011;63163;55.630;37.594;2023-04-30T03:00:15;14.4;;;7.3;;
74644;SDS011;63163;55.630;37.594;2023-04-30T03:01:16;14.2;;;7.4;;
74644;SDS011;63163;55.630;37.594;2023-04-30T03:02:17;12.8;;;7.6;;
74644;SDS011;63163;55.630;37.594;2023-04-30T03:03:20;15.4;;;8.0;;
74644;SDS011;63163;55.630;37.594;2023-04-30T03:04:21;15.3;;;7.8;;
74644;SDS011;63163;55.630;37.594;2023-04-30T03:05:21;15.8;;;7.8;;
74644;SDS011;63163;55.630;37.594;2023-04-30T03:06:22;17.8;;;7.7;;
74644;SDS011;63163;55.630;37.594;2023-04-30T03:07:22;14.4;;;8.2;;
74644;SDS011;63163;55.630;37.594;2023-04-30T03:08:23;13.8;;;8.2;;
74644;SDS011;63163;55.630;37.594;2023-04-30T03:09:23;13.1;;;8.2;;
74644;SDS011;63163;55.630;37.594;2023-04-30T03:10:24;16.7;;;8.8;;
74644;SDS011;63163;55.630;37.594;2023-04-30T03:11:25;20.1;;;9.6;;
74644;SDS011;63163;55.630;37.594;2023-04-30T03:12:25;16.1;;;8.5;;
74644;SDS011;63163;55.630;37.594;2023-04-30T03:13:26;16.5;;;7.8;;
74644;SDS011;63163;55.630;37.594;2023-04-30T03:14:26;15.8;;;8.0;;
74644;SDS011;63163;55.630;37.594;2023-04-30T03:15:27;15.6;;;8.3;;
74644;SDS011;63163;55.630;37.594;2023-04-30T03:16:27;14.3;;;8.2;;
74644;SDS011;63163;55.630;37.594;2023-04-30T03:17:30;15.6;;;8.5;;
74644;SDS011;63163;55.630;37.594;2023-04-30T03:18:30;15.4;;;8.1;;
74644;SDS011;63163;55.630;37.594;2023-04-30T03:19:31;16.0;;;8.2;;
74644;SDS011;63163;55.630;37.594;2023-04-30T03:20:32;13.0;;;8.0;;
74644;SDS011;63163;55.630;37.594;2023-04-30T03:21:32;15.8;;;9.1;;
74644;SDS011;63163;55.630;37.594;2023-04-30T03:22:33;16.8;;;8.3;;
74644;SDS011;63163;55.630;37.594;2023-04-30T03:23:34;16.0;;;8.3;;
74644;SDS011;63163;55.630;37.594;2023-04-30T03:24:34;16.6;;;8.9;;
74644;SDS011;63163;55.630;37.594;2023-04-30T03:25:35;16.0;;;8.9;;
74644;SDS011;63163;55.630;37.594;2023-04-30T03:26:35;15.1;;;8.7;;
74644;SDS011;63163;55.630;37.594;2023-04-30T03:27:36;14.5;;;8.8;;
74644;SDS011;63163;55.630;37.594;2023-04-30T03:28:36;13.2;;;8.1;;
74644;SDS011;63163;55.630;37.594;2023-04-30T03:29:37;14.6;;;8.3;;
74644;SDS011;63163;55.630;37.594;2023-04-30T03:30:38;17.0;;;7.9;;
74644;SDS011;63163;55.630;37.594;2023-04-30T03:31:38;13.0;;;7.2;;
74644;SDS011;63163;55.630;37.594;2023-04-30T03:32:39;14.0;;;7.4;;
74644;SDS011;63163;55.630;37.594;2023-04-30T03:33:39;13.0;;;7.8;;
74644;SDS011;63163;55.630;37.594;2023-04-30T03:34:40;13.5;;;7.1;;
74644;SDS011;63163;55.630;37.594;2023-04-30T03:35:40;16.5;;;7.0;;
74644;SDS011;63163;55.630;37.594;2023-04-30T03:36:41;11.9;;;7.0;;
74644;SDS011;63163;55.630;37.594;2023-04-30T03:37:41;12.8;;;7.5;;
74644;SDS011;63163;55.630;37.594;2023-04-30T03:38:42;13.3;;;7.7;;
74644;SDS011;63163;55.630;37.594;2023-04-30T03:39:42;14.3;;;7.7;;
74644;SDS011;63163;55.630;37.594;2023-04-30T03:40:43;16.1;;;7.7;;
74644;SDS011;63163;55.630;37.594;2023-04-30T03:41:43;17.0;;;7.9;;
74644;SDS011;63163;55.630;37.594;2023-04-30T03:42:44;11.2;;;7.0;;
74644;SDS011;63163;55.630;37.594;2023-04-30T03:43:44;14.5;;;7.8;;
74644;SDS011;63163;55.630;37.594;2023-04-30T03:44:45;16.4;;;8.2;;
74644;SDS011;63163;55.630;37.594;2023-04-30T03:45:45;14.5;;;7.7;;
74644;SDS011;63163;55.630;37.594;2023-04-30T03:46:46;13.8;;;8.1;;
74644;SDS011;63163;55.630;37.594;2023-04-30T03:47:47;12.6;;;7.5;;
74644;SDS011;63163;55.630;37.594;2023-04-30T03:48:48;12.9;;;7.8;;
74644;SDS011;63163;55.630;37.594;2023-04-30T03:49:48;14.7;;;7.8;;
74644;SDS011;63163;55.630;37.594;2023-04-30T03:50:54;15.1;;;7.9;;
74644;SDS011;63163;55.630;37.594;2023-04-30T03:51:54;13.7;;;8.0;;
74644;SDS011;63163;55.630;37.594;2023-04-30T03:52:55;15.8;;;8.7;;
74644;SDS011;63163;55.630;37.594;2023-04-30T03:53:55;14.5;;;7.8;;
74644;SDS011;63163;55.630;37.594;2023-04-30T03:54:56;17.1;;;8.2;;
74644;SDS011;63163;55.630;37.594;2023-04-30T03:55:56;14.8;;;8.8;;
74644;SDS011;63163;55.630;37.594;2023-04-30T03:56:57;13.3;;;8.4;;
74644;SDS011;63163;55.630;37.594;2023-04-30T03:57:57;15.6;;;8.2;;
74644;SDS011;63163;55.630;37.594;2023-04-30T03:58:58;16.0;;;7.7;;
74644;SDS011;63163;55.630;37.594;2023-04-30T03:59:58;12.7;;;7.9;;
74644;SDS011;63163;55.630;37.594;2023-04-30T04:00:59;15.3;;;8.1;;
74644;SDS011;63163;55.630;37.594;2023-04-30T04:01:59;15.3;;;8.3;;
74644;SDS011;63163;55.630;37.594;2023-04-30T04:03:00;16.4;;;8.0;;
74644;SDS011;63163;55.630;37.594;2023-04-30T04:04:01;13.5;;;7.9;;
74644;SDS011;63163;55.630;37.594;2023-04-30T04:05:01;15.2;;;8.1;;
74644;SDS011;63163;55.630;37.594;2023-04-30T04:06:02;17.1;;;8.2;;
74644;SDS011;63163;55.630;37.594;2023-04-30T04:07:04;16.5;;;8.3;;
74644;SDS011;63163;55.630;37.594;2023-04-30T04:08:07;15.3;;;8.9;;
74644;SDS011;63163;55.630;37.594;2023-04-30T04:09:07;19.6;;;9.1;;
74644;SDS011;63163;55.630;37.594;2023-04-30T04:10:08;15.9;;;9.2;;
74644;SDS011;63163;55.630;37.594;2023-04-30T04:11:09;16.6;;;8.8;;
74644;SDS011;63163;55.630;37.594;2023-04-30T04:12:09;19.4;;;9.7;;
74644;SDS011;63163;55.630;37.594;2023-04-30T04:13:10;23.2;;;9.6;;
74644;SDS011;63163;55.630;37.594;2023-04-30T04:14:10;14.0;;;8.8;;
74644;SDS011;63163;55.630;37.594;2023-04-30T04:15:11;19.3;;;10.2;;
74644;SDS011;63163;55.630;37.594;2023-04-30T04:16:12;20.7;;;10.0;;
74644;SDS011;63163;55.630;37.594;2023-04-30T04:17:13;16.0;;;9.1;;
74644;SDS011;63163;55.630;37.594;2023-04-30T04:18:13;16.7;;;9.2;;
74644;SDS011;63163;55.630;37.594;2023-04-30T04:19:14;19.0;;;9.2;;
74644;SDS011;63163;55.630;37.594;2023-04-30T04:20:14;16.5;;;8.9;;
74644;SDS011;63163;55.630;37.594;2023-04-30T04:21:15;16.3;;;9.4;;
74644;SDS011;63163;55.630;37.594;2023-04-30T04:22:16;17.6;;;9.7;;
74644;SDS011;63163;55.630;37.594;2023-04-30T04:23:16;16.1;;;9.5;;
74644;SDS011;63163;55.630;37.594;2023-04-30T04:24:17;21.4;;;9.9;;
74644;SDS011;63163;55.630;37.594;2023-04-30T04:25:18;15.8;;;8.6;;
74644;SDS011;63163;55.630;37.594;2023-04-30T04:26:18;21.0;;;9.9;;
74644;SDS011;63163;55.630;37.594;2023-04-30T04:27:20;15.9;;;10.0;;
74644;SDS011;63163;55.630;37.594;2023-04-30T04:28:21;17.3;;;9.7;;
74644;SDS011;63163;55.630;37.594;2023-04-30T04:29:21;15.4;;;9.2;;
74644;SDS011;63163;55.630;37.594;2023-04-30T04:30:22;19.1;;;9.8;;
74644;SDS011;63163;55.630;37.594;2023-04-30T04:31:23;18.7;;;9.6;;
74644;SDS011;63163;55.630;37.594;2023-04-30T04:32:23;19.8;;;9.5;;
74644;SDS011;63163;55.630;37.594;2023-04-30T04:33:24;17.4;;;9.5;;
74644;SDS011;63163;55.630;37.594;2023-04-30T04:34:24;16.7;;;9.8;;
74644;SDS011;63163;55.630;37.594;2023-04-30T04:35:25;22.9;;;9.7;;
74644;SDS011;63163;55.630;37.594;2023-04-30T04:36:26;13.3;;;9.3;;
74644;SDS011;63163;55.630;37.594;2023-04-30T04:37:27;15.7;;;9.5;;
74644;SDS011;63163;55.630;37.594;2023-04-30T04:38:28;17.2;;;9.4;;
74644;SDS011;63163;55.630;37.594;2023-04-30T04:39:28;17.4;;;9.7;;
74644;SDS011;63163;55.630;37.594;2023-04-30T04:40:29;14.0;;;9.1;;
74644;SDS011;63163;55.630;37.594;2023-04-30T04:41:30;16.0;;;9.0;;
74644;SDS011;63163;55.630;37.594;2023-04-30T04:42:32;14.9;;;9.1;;
74644;SDS011;63163;55.630;37.594;2023-04-30T04:43:32;19.7;;;9.8;;
74644;SDS011;63163;55.630;37.594;2023-04-30T04:44:33;14.6;;;9.5;;
74644;SDS011;63163;55.630;37.594;2023-04-30T04:45:33;17.8;;;9.0;;
74644;SDS011;63163;55.630;37.594;2023-04-30T04:46:35;20.4;;;10.0;;
74644;SDS011;63163;55.630;37.594;2023-04-30T04:47:37;18.7;;;9.5;;
74644;SDS011;63163;55.630;37.594;2023-04-30T04:48:38;16.0;;;9.3;;
74644;SDS011;63163;55.630;37.594;2023-04-30T04:49:38;21.7;;;10.2;;
74644;SDS011;63163;55.630;37.594;2023-04-30T04:50:39;18.1;;;10.4;;
74644;SDS011;63163;55.630;37.594;2023-04-30T04:51:40;20.8;;;10.1;;
74644;SDS011;63163;55.630;37.594;2023-04-30T04:52:40;21.3;;;10.1;;
74644;SDS011;63163;55.630;37.594;2023-04-30T04:53:41;19.2;;;10.4;;
74644;SDS011;63163;55.630;37.594;2023-04-30T04:54:41;21.7;;;10.4;;
74644;SDS011;63163;55.630;37.594;2023-04-30T04:55:42;16.3;;;10.0;;
74644;SDS011;63163;55.630;37.594;2023-04-30T04:56:42;24.6;;;11.0;;
74644;SDS011;63163;55.630;37.594;2023-04-30T04:57:43;19.5;;;10.4;;
74644;SDS011;63163;55.630;37.594;2023-04-30T04:58:43;18.0;;;9.6;;
74644;SDS011;63163;55.630;37.594;2023-04-30T04:59:44;19.9;;;10.2;;
74644;SDS011;63163;55.630;37.594;2023-04-30T05:00:45;16.0;;;10.0;;
74644;SDS011;63163;55.630;37.594;2023-04-30T05:01:45;21.0;;;10.2;;
74644;SDS011;63163;55.630;37.594;2023-04-30T05:02:46;22.5;;;10.5;;
74644;SDS011;63163;55.630;37.594;2023-04-30T05:03:47;19.4;;;10.4;;
74644;SDS011;63163;55.630;37.594;2023-04-30T05:04:48;18.2;;;11.1;;
74644;SDS011;63163;55.630;37.594;2023-04-30T05:05:49;19.8;;;10.5;;
74644;SDS011;63163;55.630;37.594;2023-04-30T05:06:50;19.7;;;9.3;;
74644;SDS011;63163;55.630;37.594;2023-04-30T05:07:51;19.0;;;10.2;;
74644;SDS011;63163;55.630;37.594;2023-04-30T05:08:54;19.1;;;9.2;;
74644;SDS011;63163;55.630;37.594;2023-04-30T05:09:54;17.1;;;9.6;;
74644;SDS011;63163;55.630;37.594;2023-04-30T05:10:55;17.6;;;10.0;;
74644;SDS011;63163;55.630;37.594;2023-04-30T05:11:55;18.3;;;9.9;;
74644;SDS011;63163;55.630;37.594;2023-04-30T05:12:56;18.9;;;10.3;;
74644;SDS011;63163;55.630;37.594;2023-04-30T05:13:56;16.4;;;9.7;;
74644;SDS011;63163;55.630;37.594;2023-04-30T05:14:57;13.8;;;8.5;;
74644;SDS011;63163;55.630;37.594;2023-04-30T05:15:57;15.2;;;9.0;;
74644;SDS011;63163;55.630;37.594;2023-04-30T05:16:58;13.3;;;7.8;;
74644;SDS011;63163;55.630;37.594;2023-04-30T05:17:58;15.5;;;9.2;;
74644;SDS011;63163;55.630;37.594;2023-04-30T05:18:59;13.7;;;8.1;;
74644;SDS011;63163;55.630;37.594;2023-04-30T05:19:59;14.7;;;8.3;;
74644;SDS011;63163;55.630;37.594;2023-04-30T05:21:00;14.4;;;8.3;;
74644;SDS011;63163;55.630;37.594;2023-04-30T05:22:00;14.2;;;8.5;;
74644;SDS011;63163;55.630;37.594;2023-04-30T05:23:01;16.9;;;8.7;;
74644;SDS011;63163;55.630;37.594;2023-04-30T05:24:02;16.0;;;8.8;;
74644;SDS011;63163;55.630;37.594;2023-04-30T05:25:03;14.6;;;8.3;;
74644;SDS011;63163;55.630;37.594;2023-04-30T05:26:05;15.5;;;8.7;;
74644;SDS011;63163;55.630;37.594;2023-04-30T05:27:05;16.3;;;8.8;;
74644;SDS011;63163;55.630;37.594;2023-04-30T05:28:06;15.9;;;8.8;;
74644;SDS011;63163;55.630;37.594;2023-04-30T05:29:06;15.6;;;8.4;;
74644;SDS011;63163;55.630;37.594;2023-04-30T05:30:07;15.5;;;8.5;;
74644;SDS011;63163;55.630;37.594;2023-04-30T05:31:08;16.6;;;8.9;;
74644;SDS011;63163;55.630;37.594;2023-04-30T05:32:09;15.1;;;8.2;;
74644;SDS011;63163;55.630;37.594;2023-04-30T05:33:09;16.3;;;8.5;;
74644;SDS011;63163;55.630;37.594;2023-04-30T05:34:10;15.3;;;8.6;;
74644;SDS011;63163;55.630;37.594;2023-04-30T05:35:11;15.5;;;8.1;;
74644;SDS011;63163;55.630;37.594;2023-04-30T05:36:12;16.3;;;8.6;;
74644;SDS011;63163;55.630;37.594;2023-04-30T05:37:13;14.6;;;8.3;;
74644;SDS011;63163;55.630;37.594;2023-04-30T05:38:14;14.4;;;8.4;;
74644;SDS011;63163;55.630;37.594;2023-04-30T05:39:14;17.3;;;8.6;;
74644;SDS011;63163;55.630;37.594;2023-04-30T05:40:15;12.1;;;7.5;;
74644;SDS011;63163;55.630;37.594;2023-04-30T05:41:16;14.8;;;7.6;;
74644;SDS011;63163;55.630;37.594;2023-04-30T05:42:16;11.8;;;6.9;;
74644;SDS011;63163;55.630;37.594;2023-04-30T05:43:17;14.0;;;6.9;;
74644;SDS011;63163;55.630;37.594;2023-04-30T05:44:17;11.7;;;6.2;;
74644;SDS011;63163;55.630;37.594;2023-04-30T05:45:18;10.2;;;6.2;;
74644;SDS011;63163;55.630;37.594;2023-04-30T05:46:18;11.9;;;6.4;;
74644;SDS011;63163;55.630;37.594;2023-04-30T05:47:19;12.1;;;6.5;;
74644;SDS011;63163;55.630;37.594;2023-04-30T05:48:19;12.9;;;6.1;;
74644;SDS011;63163;55.630;37.594;2023-04-30T05:49:20;11.5;;;6.3;;
74644;SDS011;63163;55.630;37.594;2023-04-30T05:50:20;13.6;;;6.7;;
74644;SDS011;63163;55.630;37.594;2023-04-30T05:51:21;11.6;;;6.3;;
74644;SDS011;63163;55.630;37.594;2023-04-30T05:52:22;11.7;;;6.3;;
74644;SDS011;63163;55.630;37.594;2023-04-30T05:53:22;13.7;;;6.3;;
74644;SDS011;63163;55.630;37.594;2023-04-30T05:54:23;11.5;;;6.6;;
74644;SDS011;63163;55.630;37.594;2023-04-30T05:55:23;12.5;;;7.0;;
74644;SDS011;63163;55.630;37.594;2023-04-30T05:56:24;12.2;;;6.3;;
74644;SDS011;63163;55.630;37.594;2023-04-30T05:57:25;11.1;;;6.6;;
74644;SDS011;63163;55.630;37.594;2023-04-30T05:58:25;12.3;;;6.5;;
74644;SDS011;63163;55.630;37.594;2023-04-30T05:59:26;12.5;;;7.1;;
74644;SDS011;63163;55.630;37.594;2023-04-30T06:00:26;14.2;;;7.2;;
74644;SDS011;63163;55.630;37.594;2023-04-30T06:01:27;12.1;;;7.4;;
74644;SDS011;63163;55.630;37.594;2023-04-30T06:02:28;15.2;;;7.6;;
74644;SDS011;63163;55.630;37.594;2023-04-30T06:03:28;15.5;;;7.7;;
74644;SDS011;63163;55.630;37.594;2023-04-30T06:04:29;11.3;;;7.0;;
74644;SDS011;63163;55.630;37.594;2023-04-30T06:05:30;11.9;;;7.0;;
74644;SDS011;63163;55.630;37.594;2023-04-30T06:06:30;14.4;;;6.9;;
74644;SDS011;63163;55.630;37.594;2023-04-30T06:07:31;16.3;;;6.9;;
74644;SDS011;63163;55.630;37.594;2023-04-30T06:08:31;12.8;;;6.8;;